Walsh, Canada
Current Conditions -  °F | °C
As of 7:00 AM on Monday 20 Oct 2014 (Local Time) from CYXH Reporting Station
Scattered Clouds Scattered Clouds  
Wind Chill: 41°   Ceiling: Unl
Heat Index: 46°   Visibility: 15mi
Dew Point: 36°   Wind: 10mph
Humidity: 66%   Direction: 200°SSW
Pressure: 29.73"   Gusts: NA
Location:  49.95°N, 110.03°W
Report Text: CYXH 201300Z 20009KT 15SM SCT290 08/02 A2973 RMK CI3 SLP075
Loading
Personal Weather Stations






























Interactive Weather Map
Tropical Storm Tracking
New forecast layout! Learn more

10-Day Weather Forecast

Advertisements
Track Severe Weather on mobile